createdAt,value
2024-03-05T00:00:25.600Z,2.63
2024-03-05T00:02:51.995Z,2.70
2024-03-05T00:07:46.977Z,2.60
2024-03-05T00:10:14.338Z,2.13
2024-03-05T00:12:41.437Z,2.40
2024-03-05T00:15:08.364Z,2.35
2024-03-05T00:17:34.830Z,2.50
2024-03-05T00:20:01.402Z,2.53
2024-03-05T00:22:27.878Z,2.63
2024-03-05T00:24:54.398Z,2.70
2024-03-05T00:27:20.824Z,2.90
2024-03-05T00:29:47.569Z,2.50
2024-03-05T00:32:14.060Z,2.80
2024-03-05T00:34:40.579Z,3.08
2024-03-05T00:37:07.158Z,2.92
2024-03-05T00:39:33.750Z,3.22
2024-03-05T00:42:00.149Z,3.20
2024-03-05T00:44:27.698Z,3.22
2024-03-05T00:46:54.455Z,3.10
2024-03-05T00:49:21.668Z,3.20
2024-03-05T00:51:48.730Z,3.53
2024-03-05T00:54:15.403Z,3.05
2024-03-05T00:56:42.272Z,3.22
2024-03-05T00:59:09.482Z,3.15
2024-03-05T01:01:35.958Z,2.90
2024-03-05T01:04:02.459Z,3.50
2024-03-05T01:06:28.947Z,3.28
2024-03-05T01:08:56.706Z,3.08
2024-03-05T01:11:23.179Z,3.58
2024-03-05T01:13:49.632Z,3.17
2024-03-05T01:16:16.348Z,3.03
2024-03-05T01:18:42.950Z,3.15
2024-03-05T01:21:09.568Z,2.60
2024-03-05T01:23:36.035Z,3.30
2024-03-05T01:28:32.229Z,3.20
2024-03-05T01:30:59.985Z,3.42
2024-03-05T01:33:26.846Z,3.47
2024-03-05T01:35:53.978Z,3.15
2024-03-05T01:38:21.986Z,3.13
2024-03-05T01:40:48.839Z,3.40
2024-03-05T01:43:16.381Z,3.00
2024-03-05T01:45:43.739Z,3.58
2024-03-05T01:48:11.545Z,3.97
2024-03-05T01:50:38.748Z,3.97
2024-03-05T01:53:10.671Z,3.50
2024-03-05T01:55:39.489Z,3.47
2024-03-05T01:58:08.950Z,3.40
2024-03-05T02:00:39.649Z,3.25
2024-03-05T02:03:06.934Z,3.42
2024-03-05T02:05:34.163Z,3.80
2024-03-05T02:08:01.554Z,2.95
2024-03-05T02:10:28.296Z,3.83
2024-03-05T02:12:55.939Z,3.05
2024-03-05T02:15:22.374Z,3.60
2024-03-05T02:20:15.314Z,3.10
2024-03-05T02:22:42.853Z,3.28
2024-03-05T02:25:10.640Z,3.42
2024-03-05T02:27:38.135Z,3.30
2024-03-05T02:30:11.436Z,3.33
2024-03-05T02:32:42.754Z,3.55
2024-03-05T02:35:12.470Z,3.92
2024-03-05T02:37:39.914Z,3.60
2024-03-05T02:40:11.327Z,3.03
2024-03-05T02:42:38.456Z,3.70
2024-03-05T02:45:08.720Z,3.65
2024-03-05T02:47:37.373Z,3.70
2024-03-05T02:50:05.004Z,4.65
2024-03-05T02:52:32.377Z,4.68
2024-03-05T02:54:59.124Z,4.63
2024-03-05T02:57:29.158Z,4.22
2024-03-05T02:59:55.595Z,4.03
2024-03-05T03:04:52.381Z,4.38
2024-03-05T03:07:19.896Z,3.67
2024-03-05T03:09:47.634Z,4.47
2024-03-05T03:12:14.264Z,4.22
2024-03-05T03:14:45.361Z,4.57
2024-03-05T03:17:12.385Z,4.72
2024-03-05T03:19:39.076Z,4.63
2024-03-05T03:22:05.932Z,4.72
2024-03-05T03:24:32.488Z,4.97
2024-03-05T03:29:26.578Z,4.97
2024-03-05T03:31:53.138Z,4.82
2024-03-05T03:34:19.619Z,5.70
2024-03-05T03:39:12.754Z,5.10
2024-03-05T03:41:41.861Z,4.93
2024-03-05T03:44:08.464Z,5.57
2024-03-05T03:46:38.358Z,6.85
2024-03-05T03:49:06.610Z,6.72
2024-03-05T03:51:33.975Z,6.38
2024-03-05T03:54:00.535Z,6.43
2024-03-05T03:56:27.349Z,7.25
2024-03-05T03:58:53.812Z,6.55
2024-03-05T04:01:21.811Z,6.00
2024-03-05T04:03:48.635Z,6.78
2024-03-05T04:06:16.029Z,6.78
2024-03-05T04:08:42.539Z,6.55
2024-03-05T04:13:35.920Z,5.95
2024-03-05T04:16:02.493Z,6.03
2024-03-05T04:18:28.879Z,6.90
2024-03-05T04:20:55.537Z,6.05
2024-03-05T04:23:22.779Z,6.18
2024-03-05T04:25:51.413Z,6.63
2024-03-05T04:28:18.391Z,6.43
2024-03-05T04:30:49.433Z,8.80
2024-03-05T04:33:21.246Z,7.03
2024-03-05T04:35:47.763Z,7.10
2024-03-05T04:40:40.664Z,7.50
2024-03-05T04:43:07.072Z,7.43
2024-03-05T04:45:34.921Z,7.22
2024-03-05T04:48:01.948Z,7.65
2024-03-05T04:50:28.378Z,7.13
2024-03-05T04:55:23.156Z,6.97
2024-03-05T04:57:50.067Z,6.88
2024-03-05T05:00:25.139Z,5.97
2024-03-05T05:02:53.063Z,7.50
2024-03-05T05:05:20.948Z,5.68
2024-03-05T05:07:47.890Z,5.60
2024-03-05T05:10:14.667Z,5.50
2024-03-05T05:12:41.500Z,5.45
2024-03-05T05:15:08.652Z,5.65
2024-03-05T05:17:35.481Z,5.75
2024-03-05T05:20:03.929Z,5.85
2024-03-05T05:22:30.650Z,6.18
2024-03-05T05:24:57.454Z,6.30
2024-03-05T05:27:23.876Z,5.55
2024-03-05T05:32:17.900Z,6.13
2024-03-05T05:34:44.715Z,5.88
2024-03-05T05:37:11.207Z,6.63
2024-03-05T05:39:38.165Z,5.72
2024-03-05T05:42:05.800Z,6.07
2024-03-05T05:44:32.210Z,5.80
2024-03-05T05:49:25.241Z,6.28
2024-03-05T05:51:52.374Z,6.30
2024-03-05T05:54:21.801Z,6.43
2024-03-05T05:56:49.845Z,6.57
2024-03-05T05:59:16.821Z,6.13
2024-03-05T06:01:46.205Z,6.32
2024-03-05T06:04:13.168Z,6.32
2024-03-05T06:06:39.804Z,6.80
2024-03-05T06:09:12.170Z,6.97
2024-03-05T06:14:07.352Z,6.10
2024-03-05T06:16:34.133Z,7.10
2024-03-05T06:19:01.426Z,6.80
2024-03-05T06:21:28.020Z,6.45
2024-03-05T06:23:54.433Z,6.22
2024-03-05T06:28:47.433Z,5.95
2024-03-05T06:31:13.925Z,6.38
2024-03-05T06:33:41.731Z,6.40
2024-03-05T06:36:08.234Z,6.70
2024-03-05T06:38:35.847Z,7.20
2024-03-05T06:41:04.200Z,6.28
2024-03-05T06:43:34.580Z,6.32
2024-03-05T06:46:01.430Z,6.97
2024-03-05T06:48:28.281Z,7.05
2024-03-05T06:50:59.394Z,6.65
2024-03-05T06:53:44.528Z,6.10
2024-03-05T06:56:29.926Z,6.22
2024-03-05T06:58:56.674Z,5.97
2024-03-05T07:01:23.595Z,7.00
2024-03-05T07:03:50.151Z,7.50
2024-03-05T07:06:19.678Z,7.15
2024-03-05T07:09:01.230Z,7.72
2024-03-05T07:11:28.838Z,8.00
2024-03-05T07:13:56.714Z,7.45
2024-03-05T07:16:27.962Z,7.88
2024-03-05T07:18:54.940Z,7.60
2024-03-05T07:21:23.459Z,7.85
2024-03-05T07:23:52.114Z,8.48
2024-03-05T07:26:19.610Z,8.40
2024-03-05T07:28:47.123Z,7.85
2024-03-05T07:31:15.695Z,7.32
2024-03-05T07:33:43.192Z,7.88
2024-03-05T07:36:09.873Z,8.40
2024-03-05T07:38:36.567Z,7.82
2024-03-05T07:41:10.985Z,8.57
2024-03-05T07:43:43.885Z,9.43
2024-03-05T07:46:10.484Z,9.38
2024-03-05T07:48:36.888Z,9.20
2024-03-05T07:51:03.483Z,9.93
2024-03-05T07:53:29.948Z,9.98
2024-03-05T07:55:58.391Z,9.25
2024-03-05T07:58:25.355Z,9.00
2024-03-05T08:00:51.871Z,9.30
2024-03-05T08:03:18.339Z,8.35
2024-03-05T08:05:45.714Z,10.30
2024-03-05T08:08:12.096Z,10.43
2024-03-05T08:10:39.853Z,10.02
2024-03-05T08:13:06.329Z,10.15
2024-03-05T08:15:32.858Z,11.75
2024-03-05T08:17:59.938Z,12.48
2024-03-05T08:20:27.798Z,11.82
2024-03-05T08:22:55.958Z,12.25
2024-03-05T08:25:23.547Z,13.38
2024-03-05T08:27:55.414Z,13.02
2024-03-05T08:30:24.013Z,11.02
2024-03-05T08:32:52.549Z,11.48
2024-03-05T08:35:19.865Z,10.48
2024-03-05T08:37:48.389Z,11.38
2024-03-05T08:40:20.634Z,11.57
2024-03-05T08:45:22.200Z,10.73
2024-03-05T08:47:49.866Z,11.35
2024-03-05T08:50:16.828Z,10.68
2024-03-05T08:52:46.648Z,11.27
2024-03-05T08:55:15.327Z,11.65
2024-03-05T08:57:42.628Z,10.73
2024-03-05T09:00:26.832Z,10.95
2024-03-05T09:03:02.376Z,11.70
2024-03-05T09:05:28.759Z,11.63
2024-03-05T09:07:55.488Z,12.05
2024-03-05T09:10:22.121Z,11.38
2024-03-05T09:12:49.829Z,11.48
2024-03-05T09:15:17.436Z,12.30
2024-03-05T09:17:44.291Z,11.52
2024-03-05T09:20:17.102Z,11.45
2024-03-05T09:22:45.974Z,10.90
2024-03-05T09:25:13.831Z,11.90
2024-03-05T09:27:43.358Z,12.93
2024-03-05T09:30:10.846Z,12.15
2024-03-05T09:32:37.443Z,12.65
2024-03-05T09:35:09.885Z,13.40
2024-03-05T09:37:37.300Z,12.20
2024-03-05T09:40:04.418Z,14.10
2024-03-05T09:42:32.823Z,13.95
2024-03-05T09:45:00.405Z,14.52
2024-03-05T09:47:27.737Z,15.73
2024-03-05T09:49:56.705Z,13.48
2024-03-05T09:52:23.719Z,13.55
2024-03-05T09:54:50.171Z,14.25
2024-03-05T09:57:20.548Z,14.80
2024-03-05T09:59:48.101Z,13.25
2024-03-05T10:02:17.263Z,13.63
2024-03-05T10:04:46.839Z,13.75
2024-03-05T10:07:25.224Z,13.00
2024-03-05T10:10:12.616Z,14.50
2024-03-05T10:12:40.677Z,13.52
2024-03-05T10:15:18.847Z,13.32
2024-03-05T10:20:38.018Z,12.80
2024-03-05T10:23:07.549Z,13.43
2024-03-05T10:25:36.095Z,13.68
2024-03-05T10:28:04.495Z,12.93
2024-03-05T10:30:34.240Z,13.30
2024-03-05T10:33:03.056Z,13.55
2024-03-05T10:35:30.754Z,15.15
2024-03-05T10:38:09.980Z,14.43
2024-03-05T10:40:38.062Z,14.80
2024-03-05T10:43:07.328Z,15.07
2024-03-05T10:45:42.362Z,15.63
2024-03-05T10:48:11.572Z,15.05
2024-03-05T10:50:41.613Z,14.65
2024-03-05T10:53:09.665Z,13.90
2024-03-05T10:55:37.898Z,16.30
2024-03-05T10:58:15.137Z,16.05
2024-03-05T11:00:45.115Z,14.50
2024-03-05T11:03:13.443Z,15.38
2024-03-05T11:05:49.711Z,14.77
2024-03-05T11:08:22.059Z,15.55
2024-03-05T11:10:52.959Z,16.85
2024-03-05T11:13:20.739Z,15.85
2024-03-05T11:15:50.433Z,16.00
2024-03-05T11:18:34.314Z,15.90
2024-03-05T11:21:14.545Z,15.32
2024-03-05T11:23:55.635Z,13.88
2024-03-05T11:26:24.253Z,15.30
2024-03-05T11:28:56.400Z,14.93
2024-03-05T11:31:29.087Z,15.48
2024-03-05T11:34:12.353Z,15.48
2024-03-05T11:36:39.135Z,14.18
2024-03-05T11:39:05.633Z,15.93
2024-03-05T11:41:34.435Z,15.52
2024-03-05T11:44:03.920Z,15.95
2024-03-05T11:46:48.440Z,16.83
2024-03-05T11:51:44.267Z,14.73
2024-03-05T11:54:12.788Z,14.27
2024-03-05T11:56:45.685Z,16.45
2024-03-05T11:59:13.443Z,14.68
2024-03-05T12:01:42.469Z,15.82
2024-03-05T12:04:10.963Z,15.65
2024-03-05T12:06:44.463Z,15.18
2024-03-05T12:09:22.150Z,15.35
2024-03-05T12:12:06.943Z,14.88
2024-03-05T12:14:35.458Z,15.25
2024-03-05T12:17:05.171Z,16.05
2024-03-05T12:19:32.607Z,14.07
2024-03-05T12:22:00.651Z,14.52
2024-03-05T12:24:31.289Z,13.93
2024-03-05T12:26:58.922Z,15.60
2024-03-05T12:29:30.233Z,14.52
2024-03-05T12:31:58.246Z,14.45
2024-03-05T12:34:26.822Z,14.75
2024-03-05T12:36:53.394Z,15.55
2024-03-05T12:39:19.929Z,16.33
2024-03-05T12:42:01.722Z,15.75
2024-03-05T12:44:29.568Z,15.07
2024-03-05T12:47:14.672Z,16.45
2024-03-05T12:49:47.139Z,14.52
2024-03-05T12:52:21.262Z,15.40
2024-03-05T12:54:58.114Z,12.48
2024-03-05T12:57:29.540Z,12.90
2024-03-05T12:59:59.350Z,12.80
2024-03-05T13:02:26.158Z,12.73
2024-03-05T13:04:54.646Z,14.52
2024-03-05T13:07:22.655Z,12.95
2024-03-05T13:09:52.082Z,14.50
2024-03-05T13:12:19.887Z,12.70
2024-03-05T13:14:46.310Z,13.32
2024-03-05T13:17:12.756Z,12.90
2024-03-05T13:19:39.339Z,13.70
2024-03-05T13:22:05.821Z,14.02
2024-03-05T13:24:32.423Z,13.35
2024-03-05T13:27:00.768Z,13.32
2024-03-05T13:29:27.489Z,13.45
2024-03-05T13:31:55.233Z,14.88
2024-03-05T13:34:23.678Z,13.23
2024-03-05T13:36:50.477Z,13.90
2024-03-05T13:39:22.979Z,15.35
2024-03-05T13:41:50.109Z,14.02
2024-03-05T13:44:16.545Z,13.50
2024-03-05T13:46:43.013Z,14.32
2024-03-05T13:49:12.365Z,13.23
2024-03-05T13:51:39.098Z,13.18
2024-03-05T13:54:07.413Z,12.98
2024-03-05T13:56:36.218Z,13.90
2024-03-05T13:59:07.829Z,12.65
2024-03-05T14:01:34.498Z,13.48
2024-03-05T14:04:01.017Z,11.77
2024-03-05T14:06:28.626Z,12.02
2024-03-05T14:08:57.497Z,13.23
2024-03-05T14:11:24.054Z,11.82
2024-03-05T14:13:50.589Z,12.57
2024-03-05T14:16:19.013Z,12.95
2024-03-05T14:18:45.837Z,12.50
2024-03-05T14:21:12.456Z,11.40
2024-03-05T14:23:40.448Z,12.43
2024-03-05T14:26:07.773Z,12.13
2024-03-05T14:28:34.601Z,12.25
2024-03-05T14:31:01.859Z,13.02
2024-03-05T14:33:28.230Z,12.45
2024-03-05T14:35:54.644Z,11.57
2024-03-05T14:38:22.100Z,12.10
2024-03-05T14:40:51.035Z,13.00
2024-03-05T14:43:17.797Z,11.52
2024-03-05T14:45:44.263Z,13.15
2024-03-05T14:48:10.735Z,12.48
2024-03-05T14:50:37.313Z,11.65
2024-03-05T14:53:04.016Z,13.02
2024-03-05T14:55:31.213Z,13.93
2024-03-05T14:57:57.734Z,12.27
2024-03-05T15:00:24.556Z,13.50
2024-03-05T15:02:52.218Z,12.60
2024-03-05T15:05:20.235Z,13.07
2024-03-05T15:07:47.349Z,12.95
2024-03-05T15:10:17.048Z,12.82
2024-03-05T15:12:47.260Z,11.35
2024-03-05T15:15:14.635Z,12.88
2024-03-05T15:17:41.746Z,13.00
2024-03-05T15:20:17.254Z,13.38
2024-03-05T15:22:51.412Z,13.38
2024-03-05T15:25:23.916Z,13.55
2024-03-05T15:30:20.548Z,14.15
2024-03-05T15:32:48.756Z,13.88
2024-03-05T15:35:16.721Z,13.48
2024-03-05T15:37:46.224Z,12.23
2024-03-05T15:40:17.435Z,13.85
2024-03-05T15:42:47.362Z,12.93
2024-03-05T15:45:14.655Z,13.52
2024-03-05T15:47:42.864Z,13.82
2024-03-05T15:50:16.861Z,12.98
2024-03-05T15:52:54.525Z,13.38
2024-03-05T15:55:25.892Z,11.77
2024-03-05T15:58:02.739Z,14.55
2024-03-05T16:00:37.280Z,13.75
2024-03-05T16:03:07.979Z,13.27
2024-03-05T16:05:47.354Z,13.25
2024-03-05T16:08:24.989Z,12.10
2024-03-05T16:10:52.872Z,13.35
2024-03-05T16:13:19.623Z,12.88
2024-03-05T16:15:47.380Z,14.05
2024-03-05T16:18:14.619Z,13.13
2024-03-05T16:20:41.337Z,12.57
2024-03-05T16:23:08.830Z,13.13
2024-03-05T16:25:40.299Z,13.90
2024-03-05T16:28:09.182Z,13.50
2024-03-05T16:30:35.951Z,12.68
2024-03-05T16:33:02.423Z,13.80
2024-03-05T16:35:33.685Z,11.70
2024-03-05T16:38:01.253Z,13.25
2024-03-05T16:40:27.836Z,12.18
2024-03-05T16:42:55.912Z,13.40
2024-03-05T16:45:28.557Z,12.68
2024-03-05T16:47:59.382Z,12.73
2024-03-05T16:50:28.146Z,12.52
2024-03-05T16:53:02.001Z,13.57
2024-03-05T16:55:28.849Z,13.13
2024-03-05T16:58:00.634Z,13.13
2024-03-05T17:00:32.020Z,13.93
2024-03-05T17:03:08.689Z,12.63
2024-03-05T17:05:38.122Z,11.63
2024-03-05T17:08:14.987Z,13.50
2024-03-05T17:10:48.401Z,12.88
2024-03-05T17:13:26.320Z,12.75
2024-03-05T17:16:05.278Z,11.23
2024-03-05T17:18:33.235Z,12.02
2024-03-05T17:20:59.871Z,12.13
2024-03-05T17:23:27.974Z,12.35
2024-03-05T17:25:56.804Z,12.60
2024-03-05T17:28:26.576Z,13.10
2024-03-05T17:30:53.166Z,13.27
2024-03-05T17:33:19.636Z,13.95
2024-03-05T17:35:46.398Z,12.88
2024-03-05T17:38:14.464Z,13.43
2024-03-05T17:40:41.705Z,11.60
2024-03-05T17:43:08.362Z,13.57
2024-03-05T17:45:34.926Z,14.15
2024-03-05T17:48:06.761Z,13.48
2024-03-05T17:50:34.139Z,14.45
2024-03-05T17:53:00.581Z,14.90
2024-03-05T17:55:27.070Z,14.20
2024-03-05T17:57:53.612Z,13.45
2024-03-05T18:00:23.452Z,13.77
2024-03-05T18:02:51.762Z,13.38
2024-03-05T18:05:19.737Z,13.02
2024-03-05T18:07:46.954Z,12.20
2024-03-05T18:10:13.876Z,12.90
2024-03-05T18:12:40.924Z,13.75
2024-03-05T18:15:08.641Z,11.70
2024-03-05T18:17:42.088Z,12.07
2024-03-05T18:20:10.061Z,12.40
2024-03-05T18:22:37.038Z,11.88
2024-03-05T18:25:15.448Z,13.85
2024-03-05T18:27:42.829Z,13.68
2024-03-05T18:30:10.965Z,12.95
2024-03-05T18:32:39.212Z,15.15
2024-03-05T18:35:09.867Z,14.70
2024-03-05T18:37:38.531Z,14.73
2024-03-05T18:40:07.995Z,13.50
2024-03-05T18:42:34.500Z,13.93
2024-03-05T18:45:04.615Z,14.00
2024-03-05T18:47:31.080Z,12.20
2024-03-05T18:49:57.708Z,12.10
2024-03-05T18:52:24.174Z,13.63
2024-03-05T18:54:50.880Z,13.75
2024-03-05T18:57:17.464Z,11.80
2024-03-05T18:59:45.041Z,11.90
2024-03-05T19:02:11.568Z,11.70
2024-03-05T19:04:38.112Z,12.52
2024-03-05T19:07:05.001Z,13.40
2024-03-05T19:09:31.656Z,12.93
2024-03-05T19:11:58.304Z,13.23
2024-03-05T19:14:24.766Z,12.38
2024-03-05T19:16:51.258Z,13.15
2024-03-05T19:19:17.726Z,12.95
2024-03-05T19:21:44.913Z,12.80
2024-03-05T19:24:11.300Z,12.38
2024-03-05T19:26:38.435Z,11.48
2024-03-05T19:29:06.489Z,12.52
2024-03-05T19:31:33.199Z,11.57
2024-03-05T19:33:59.672Z,11.90
2024-03-05T19:36:26.347Z,12.68
2024-03-05T19:38:55.603Z,13.02
2024-03-05T19:41:22.676Z,13.60
2024-03-05T19:43:49.324Z,11.57
2024-03-05T19:46:15.931Z,12.30
2024-03-05T19:48:44.040Z,12.75
2024-03-05T19:51:13.932Z,12.20
2024-03-05T19:53:40.352Z,11.73
2024-03-05T19:56:07.207Z,13.45
2024-03-05T19:58:34.146Z,12.63
2024-03-05T20:01:01.761Z,13.07
2024-03-05T20:03:29.074Z,12.77
2024-03-05T20:05:55.681Z,12.57
2024-03-05T20:08:22.173Z,11.57
2024-03-05T20:10:48.847Z,12.32
2024-03-05T20:13:15.321Z,11.20
2024-03-05T20:15:41.832Z,11.27
2024-03-05T20:18:09.441Z,10.27
2024-03-05T20:20:37.469Z,11.15
2024-03-05T20:23:04.255Z,9.82
2024-03-05T20:25:30.831Z,9.35
2024-03-05T20:27:57.422Z,9.65
2024-03-05T20:30:24.215Z,10.80
2024-03-05T20:32:51.706Z,10.13
2024-03-05T20:35:20.031Z,9.60
2024-03-05T20:37:48.792Z,10.35
2024-03-05T20:40:15.954Z,10.77
2024-03-05T20:42:43.902Z,10.85
2024-03-05T20:45:12.574Z,11.32
2024-03-05T20:47:39.846Z,10.88
2024-03-05T20:50:08.975Z,10.30
2024-03-05T20:52:36.399Z,8.98
2024-03-05T20:55:05.042Z,12.70
2024-03-05T20:57:35.108Z,10.32
2024-03-05T21:00:07.408Z,10.23
2024-03-05T21:02:37.820Z,9.85
2024-03-05T21:05:08.933Z,11.82
2024-03-05T21:07:37.069Z,12.05
2024-03-05T21:10:08.340Z,10.15
2024-03-05T21:12:38.362Z,10.13
2024-03-05T21:15:09.502Z,9.75
2024-03-05T21:17:39.822Z,10.07
2024-03-05T21:20:11.422Z,10.32
2024-03-05T21:22:38.856Z,11.02
2024-03-05T21:25:08.882Z,12.18
2024-03-05T21:27:36.321Z,12.70
2024-03-05T21:30:06.980Z,13.27
2024-03-05T21:32:34.429Z,13.32
2024-03-05T21:35:07.844Z,12.00
2024-03-05T21:37:39.158Z,11.88
2024-03-05T21:40:07.256Z,12.20
2024-03-05T21:42:34.415Z,12.15
2024-03-05T21:45:01.594Z,12.25
2024-03-05T21:47:28.264Z,10.45
2024-03-05T21:49:54.777Z,11.90
2024-03-05T21:52:21.260Z,11.48
2024-03-05T21:54:47.668Z,11.98
2024-03-05T21:57:14.170Z,12.30
2024-03-05T21:59:40.588Z,13.25
2024-03-05T22:02:07.800Z,13.75
2024-03-05T22:04:34.612Z,12.88
2024-03-05T22:07:01.196Z,12.32
2024-03-05T22:09:27.649Z,13.43
2024-03-05T22:11:54.119Z,14.00
2024-03-05T22:14:20.750Z,14.02
2024-03-05T22:16:47.490Z,14.13
2024-03-05T22:19:14.247Z,13.07
2024-03-05T22:21:40.811Z,14.27
2024-03-05T22:24:07.967Z,12.25
2024-03-05T22:26:35.220Z,15.25
2024-03-05T22:29:02.069Z,13.65
2024-03-05T22:31:28.892Z,13.48
2024-03-05T22:33:55.752Z,13.60
2024-03-05T22:36:22.311Z,13.25
2024-03-05T22:38:49.644Z,12.73
2024-03-05T22:41:17.673Z,12.35
2024-03-05T22:43:44.705Z,12.90
2024-03-05T22:46:11.413Z,10.90
2024-03-05T22:48:37.950Z,11.38
2024-03-05T22:51:08.064Z,13.68
2024-03-05T22:53:35.527Z,12.02
2024-03-05T22:56:02.065Z,13.38
2024-03-05T22:58:28.668Z,13.00
2024-03-05T23:00:59.447Z,14.02
2024-03-05T23:03:28.886Z,13.93
2024-03-05T23:05:55.893Z,14.70
2024-03-05T23:08:22.516Z,15.30
2024-03-05T23:10:49.282Z,14.77
2024-03-05T23:13:16.169Z,14.90
2024-03-05T23:15:43.314Z,14.93
2024-03-05T23:18:10.113Z,14.95
2024-03-05T23:20:36.647Z,14.77
2024-03-05T23:23:03.165Z,14.30
2024-03-05T23:25:29.648Z,15.20
2024-03-05T23:27:58.534Z,14.52
2024-03-05T23:30:26.736Z,14.18
2024-03-05T23:32:53.941Z,12.98
2024-03-05T23:35:20.793Z,14.95
2024-03-05T23:37:47.459Z,14.18
2024-03-05T23:40:14.873Z,15.55
2024-03-05T23:42:41.586Z,14.75
2024-03-05T23:45:08.493Z,14.50
2024-03-05T23:47:35.252Z,14.73
2024-03-05T23:50:02.853Z,13.23
2024-03-05T23:52:29.536Z,13.50
2024-03-05T23:54:59.083Z,14.35
2024-03-05T23:57:28.637Z,13.23
2024-03-05T23:59:55.412Z,14.88
